sensor_id;sensor_type;location;lat;lon;timestamp;P1;durP1;ratioP1;P2;durP2;ratioP2
9918;SDS011;4998;51.024;13.828;2023-08-20T00:00:12;8.47;;;7.77;;
9918;SDS011;4998;51.024;13.828;2023-08-20T00:02:41;9.03;;;8.20;;
9918;SDS011;4998;51.024;13.828;2023-08-20T00:05:09;8.53;;;7.73;;
9918;SDS011;4998;51.024;13.828;2023-08-20T00:07:39;12.20;;;8.03;;
9918;SDS011;4998;51.024;13.828;2023-08-20T00:10:06;8.77;;;7.97;;
9918;SDS011;4998;51.024;13.828;2023-08-20T00:12:34;7.87;;;7.27;;
9918;SDS011;4998;51.024;13.828;2023-08-20T00:15:02;8.80;;;7.90;;
9918;SDS011;4998;51.024;13.828;2023-08-20T00:17:31;8.43;;;7.63;;
9918;SDS011;4998;51.024;13.828;2023-08-20T00:19:59;8.70;;;7.90;;
9918;SDS011;4998;51.024;13.828;2023-08-20T00:22:26;7.80;;;7.10;;
9918;SDS011;4998;51.024;13.828;2023-08-20T00:24:56;8.40;;;7.60;;
9918;SDS011;4998;51.024;13.828;2023-08-20T00:27:23;8.50;;;7.70;;
9918;SDS011;4998;51.024;13.828;2023-08-20T00:29:50;7.80;;;7.20;;
9918;SDS011;4998;51.024;13.828;2023-08-20T00:32:18;8.60;;;7.77;;
9918;SDS011;4998;51.024;13.828;2023-08-20T00:34:44;12.63;;;7.83;;
9918;SDS011;4998;51.024;13.828;2023-08-20T00:37:11;8.07;;;7.37;;
9918;SDS011;4998;51.024;13.828;2023-08-20T00:39:38;7.80;;;7.10;;
9918;SDS011;4998;51.024;13.828;2023-08-20T00:42:07;7.97;;;7.27;;
9918;SDS011;4998;51.024;13.828;2023-08-20T00:44:34;8.47;;;7.67;;
9918;SDS011;4998;51.024;13.828;2023-08-20T00:47:01;8.03;;;7.33;;
9918;SDS011;4998;51.024;13.828;2023-08-20T00:49:31;7.73;;;7.03;;
9918;SDS011;4998;51.024;13.828;2023-08-20T00:51:58;7.80;;;7.07;;
9918;SDS011;4998;51.024;13.828;2023-08-20T00:54:26;7.87;;;7.17;;
9918;SDS011;4998;51.024;13.828;2023-08-20T00:56:54;8.60;;;6.90;;
9918;SDS011;4998;51.024;13.828;2023-08-20T00:59:23;7.93;;;7.27;;
9918;SDS011;4998;51.024;13.828;2023-08-20T01:01:50;7.43;;;6.73;;
9918;SDS011;4998;51.024;13.828;2023-08-20T01:04:17;7.70;;;7.07;;
9918;SDS011;4998;51.024;13.828;2023-08-20T01:06:46;8.13;;;7.33;;
9918;SDS011;4998;51.024;13.828;2023-08-20T01:09:21;8.40;;;7.50;;
9918;SDS011;4998;51.024;13.828;2023-08-20T01:11:56;7.97;;;7.27;;
9918;SDS011;4998;51.024;13.828;2023-08-20T01:14:27;8.33;;;7.63;;
9918;SDS011;4998;51.024;13.828;2023-08-20T01:16:53;8.53;;;7.73;;
9918;SDS011;4998;51.024;13.828;2023-08-20T01:19:21;11.30;;;7.50;;
9918;SDS011;4998;51.024;13.828;2023-08-20T01:21:54;7.80;;;7.20;;
9918;SDS011;4998;51.024;13.828;2023-08-20T01:24:37;8.90;;;7.17;;
9918;SDS011;4998;51.024;13.828;2023-08-20T01:30:04;7.77;;;7.07;;
9918;SDS011;4998;51.024;13.828;2023-08-20T01:32:32;7.50;;;6.70;;
9918;SDS011;4998;51.024;13.828;2023-08-20T01:35:00;8.00;;;7.27;;
9918;SDS011;4998;51.024;13.828;2023-08-20T01:37:27;7.73;;;6.90;;
9918;SDS011;4998;51.024;13.828;2023-08-20T01:39:55;7.93;;;7.23;;
9918;SDS011;4998;51.024;13.828;2023-08-20T01:42:22;7.83;;;7.10;;
9918;SDS011;4998;51.024;13.828;2023-08-20T01:44:49;8.20;;;7.40;;
9918;SDS011;4998;51.024;13.828;2023-08-20T01:47:17;8.37;;;7.47;;
9918;SDS011;4998;51.024;13.828;2023-08-20T01:49:44;11.13;;;7.83;;
9918;SDS011;4998;51.024;13.828;2023-08-20T01:52:11;8.30;;;7.50;;
9918;SDS011;4998;51.024;13.828;2023-08-20T01:54:37;9.37;;;8.27;;
9918;SDS011;4998;51.024;13.828;2023-08-20T01:57:04;8.60;;;7.70;;
9918;SDS011;4998;51.024;13.828;2023-08-20T01:59:31;8.37;;;7.67;;
9918;SDS011;4998;51.024;13.828;2023-08-20T02:01:58;7.60;;;7.00;;
9918;SDS011;4998;51.024;13.828;2023-08-20T02:04:27;8.83;;;8.07;;
9918;SDS011;4998;51.024;13.828;2023-08-20T02:06:54;7.83;;;7.23;;
9918;SDS011;4998;51.024;13.828;2023-08-20T02:09:20;8.00;;;7.30;;
9918;SDS011;4998;51.024;13.828;2023-08-20T02:11:47;8.07;;;6.30;;
9918;SDS011;4998;51.024;13.828;2023-08-20T02:14:14;8.83;;;8.00;;
9918;SDS011;4998;51.024;13.828;2023-08-20T02:16:41;8.63;;;7.47;;
9918;SDS011;4998;51.024;13.828;2023-08-20T02:19:08;8.00;;;7.20;;
9918;SDS011;4998;51.024;13.828;2023-08-20T02:21:38;8.03;;;7.33;;
9918;SDS011;4998;51.024;13.828;2023-08-20T02:24:05;7.83;;;7.00;;
9918;SDS011;4998;51.024;13.828;2023-08-20T02:26:32;8.33;;;7.40;;
9918;SDS011;4998;51.024;13.828;2023-08-20T02:28:59;7.73;;;7.03;;
9918;SDS011;4998;51.024;13.828;2023-08-20T02:31:26;7.80;;;7.00;;
9918;SDS011;4998;51.024;13.828;2023-08-20T02:33:53;8.63;;;7.73;;
9918;SDS011;4998;51.024;13.828;2023-08-20T02:36:20;8.53;;;7.73;;
9918;SDS011;4998;51.024;13.828;2023-08-20T02:38:48;8.77;;;7.87;;
9918;SDS011;4998;51.024;13.828;2023-08-20T02:41:16;9.87;;;7.57;;
9918;SDS011;4998;51.024;13.828;2023-08-20T02:43:43;7.50;;;6.90;;
9918;SDS011;4998;51.024;13.828;2023-08-20T02:46:09;8.40;;;7.70;;
9918;SDS011;4998;51.024;13.828;2023-08-20T02:48:37;8.70;;;7.90;;
9918;SDS011;4998;51.024;13.828;2023-08-20T02:51:04;8.30;;;7.60;;
9918;SDS011;4998;51.024;13.828;2023-08-20T02:53:30;8.70;;;7.90;;
9918;SDS011;4998;51.024;13.828;2023-08-20T02:55:59;7.93;;;7.33;;
9918;SDS011;4998;51.024;13.828;2023-08-20T02:58:26;9.93;;;7.13;;
9918;SDS011;4998;51.024;13.828;2023-08-20T03:00:53;9.63;;;7.30;;
9918;SDS011;4998;51.024;13.828;2023-08-20T03:03:20;8.13;;;7.30;;
9918;SDS011;4998;51.024;13.828;2023-08-20T03:05:46;9.10;;;7.43;;
9918;SDS011;4998;51.024;13.828;2023-08-20T03:08:13;7.87;;;6.97;;
9918;SDS011;4998;51.024;13.828;2023-08-20T03:10:40;10.30;;;6.87;;
9918;SDS011;4998;51.024;13.828;2023-08-20T03:13:09;8.37;;;7.63;;
9918;SDS011;4998;51.024;13.828;2023-08-20T03:15:36;8.17;;;7.40;;
9918;SDS011;4998;51.024;13.828;2023-08-20T03:18:03;8.30;;;7.50;;
9918;SDS011;4998;51.024;13.828;2023-08-20T03:20:31;9.10;;;8.30;;
9918;SDS011;4998;51.024;13.828;2023-08-20T03:22:58;7.67;;;6.97;;
9918;SDS011;4998;51.024;13.828;2023-08-20T03:25:25;8.13;;;7.43;;
9918;SDS011;4998;51.024;13.828;2023-08-20T03:27:52;8.30;;;7.50;;
9918;SDS011;4998;51.024;13.828;2023-08-20T03:30:20;8.33;;;7.63;;
9918;SDS011;4998;51.024;13.828;2023-08-20T03:32:47;8.73;;;7.97;;
9918;SDS011;4998;51.024;13.828;2023-08-20T03:35:14;9.10;;;8.03;;
9918;SDS011;4998;51.024;13.828;2023-08-20T03:37:41;7.83;;;7.13;;
9918;SDS011;4998;51.024;13.828;2023-08-20T03:40:08;8.13;;;7.43;;
9918;SDS011;4998;51.024;13.828;2023-08-20T03:42:36;8.07;;;7.27;;
9918;SDS011;4998;51.024;13.828;2023-08-20T03:45:03;8.00;;;7.30;;
9918;SDS011;4998;51.024;13.828;2023-08-20T03:47:32;7.67;;;6.97;;
9918;SDS011;4998;51.024;13.828;2023-08-20T03:49:59;10.63;;;8.33;;
9918;SDS011;4998;51.024;13.828;2023-08-20T03:52:25;7.87;;;7.17;;
9918;SDS011;4998;51.024;13.828;2023-08-20T03:54:52;10.30;;;8.10;;
9918;SDS011;4998;51.024;13.828;2023-08-20T03:57:19;8.43;;;7.63;;
9918;SDS011;4998;51.024;13.828;2023-08-20T03:59:47;8.13;;;7.43;;
9918;SDS011;4998;51.024;13.828;2023-08-20T04:02:14;7.73;;;7.07;;
9918;SDS011;4998;51.024;13.828;2023-08-20T04:04:43;7.90;;;7.20;;
9918;SDS011;4998;51.024;13.828;2023-08-20T04:07:10;8.20;;;7.40;;
9918;SDS011;4998;51.024;13.828;2023-08-20T04:09:37;8.63;;;7.77;;
9918;SDS011;4998;51.024;13.828;2023-08-20T04:12:05;8.43;;;7.47;;
9918;SDS011;4998;51.024;13.828;2023-08-20T04:14:32;8.40;;;7.70;;
9918;SDS011;4998;51.024;13.828;2023-08-20T04:16:59;8.33;;;7.63;;
9918;SDS011;4998;51.024;13.828;2023-08-20T04:19:26;8.17;;;7.43;;
9918;SDS011;4998;51.024;13.828;2023-08-20T04:21:54;8.30;;;7.53;;
9918;SDS011;4998;51.024;13.828;2023-08-20T04:24:21;11.73;;;7.20;;
9918;SDS011;4998;51.024;13.828;2023-08-20T04:26:48;8.47;;;7.67;;
9918;SDS011;4998;51.024;13.828;2023-08-20T04:29:15;8.63;;;7.63;;
9918;SDS011;4998;51.024;13.828;2023-08-20T04:31:42;8.10;;;7.40;;
9918;SDS011;4998;51.024;13.828;2023-08-20T04:34:09;7.60;;;7.00;;
9918;SDS011;4998;51.024;13.828;2023-08-20T04:36:36;8.00;;;7.30;;
9918;SDS011;4998;51.024;13.828;2023-08-20T04:39:04;8.60;;;7.80;;
9918;SDS011;4998;51.024;13.828;2023-08-20T04:41:31;9.53;;;8.63;;
9918;SDS011;4998;51.024;13.828;2023-08-20T04:43:58;8.50;;;7.60;;
9918;SDS011;4998;51.024;13.828;2023-08-20T04:46:25;7.87;;;7.17;;
9918;SDS011;4998;51.024;13.828;2023-08-20T04:48:53;8.43;;;7.63;;
9918;SDS011;4998;51.024;13.828;2023-08-20T04:51:20;8.27;;;7.57;;
9918;SDS011;4998;51.024;13.828;2023-08-20T04:53:47;7.57;;;6.97;;
9918;SDS011;4998;51.024;13.828;2023-08-20T04:56:15;8.17;;;7.47;;
9918;SDS011;4998;51.024;13.828;2023-08-20T04:58:42;8.00;;;7.30;;
9918;SDS011;4998;51.024;13.828;2023-08-20T05:01:09;7.77;;;7.07;;
9918;SDS011;4998;51.024;13.828;2023-08-20T05:03:36;8.03;;;7.33;;
9918;SDS011;4998;51.024;13.828;2023-08-20T05:06:03;8.27;;;7.40;;
9918;SDS011;4998;51.024;13.828;2023-08-20T05:08:30;9.07;;;7.87;;
9918;SDS011;4998;51.024;13.828;2023-08-20T05:10:57;8.83;;;8.07;;
9918;SDS011;4998;51.024;13.828;2023-08-20T05:13:25;8.43;;;7.63;;
9918;SDS011;4998;51.024;13.828;2023-08-20T05:15:52;8.50;;;7.43;;
9918;SDS011;4998;51.024;13.828;2023-08-20T05:18:19;8.40;;;7.70;;
9918;SDS011;4998;51.024;13.828;2023-08-20T05:20:46;11.43;;;8.07;;
9918;SDS011;4998;51.024;13.828;2023-08-20T05:23:12;9.40;;;8.50;;
9918;SDS011;4998;51.024;13.828;2023-08-20T05:25:39;8.17;;;7.47;;
9918;SDS011;4998;51.024;13.828;2023-08-20T05:28:06;8.50;;;7.70;;
9918;SDS011;4998;51.024;13.828;2023-08-20T05:30:35;8.73;;;7.83;;
9918;SDS011;4998;51.024;13.828;2023-08-20T05:33:02;9.97;;;9.07;;
9918;SDS011;4998;51.024;13.828;2023-08-20T05:35:29;8.27;;;7.47;;
9918;SDS011;4998;51.024;13.828;2023-08-20T05:37:56;8.87;;;7.90;;
9918;SDS011;4998;51.024;13.828;2023-08-20T05:40:22;10.10;;;7.77;;
9918;SDS011;4998;51.024;13.828;2023-08-20T05:42:49;8.20;;;7.50;;
9918;SDS011;4998;51.024;13.828;2023-08-20T05:45:16;9.83;;;7.40;;
9918;SDS011;4998;51.024;13.828;2023-08-20T05:47:44;10.47;;;7.87;;
9918;SDS011;4998;51.024;13.828;2023-08-20T05:50:11;7.83;;;7.13;;
9918;SDS011;4998;51.024;13.828;2023-08-20T05:52:38;7.33;;;6.63;;
9918;SDS011;4998;51.024;13.828;2023-08-20T05:55:05;7.47;;;6.87;;
9918;SDS011;4998;51.024;13.828;2023-08-20T05:57:33;7.00;;;6.40;;
9918;SDS011;4998;51.024;13.828;2023-08-20T06:00:01;7.90;;;7.07;;
9918;SDS011;4998;51.024;13.828;2023-08-20T06:02:29;6.93;;;6.33;;
9918;SDS011;4998;51.024;13.828;2023-08-20T06:04:58;8.43;;;6.37;;
9918;SDS011;4998;51.024;13.828;2023-08-20T06:07:25;7.00;;;6.40;;
9918;SDS011;4998;51.024;13.828;2023-08-20T06:09:52;7.60;;;6.87;;
9918;SDS011;4998;51.024;13.828;2023-08-20T06:12:19;6.67;;;6.07;;
9918;SDS011;4998;51.024;13.828;2023-08-20T06:14:46;6.57;;;5.83;;
9918;SDS011;4998;51.024;13.828;2023-08-20T06:17:12;6.30;;;5.80;;
9918;SDS011;4998;51.024;13.828;2023-08-20T06:19:40;5.80;;;5.40;;
9918;SDS011;4998;51.024;13.828;2023-08-20T06:22:08;5.63;;;5.13;;
9918;SDS011;4998;51.024;13.828;2023-08-20T06:24:35;6.40;;;5.80;;
9918;SDS011;4998;51.024;13.828;2023-08-20T06:27:02;6.17;;;5.57;;
9918;SDS011;4998;51.024;13.828;2023-08-20T06:29:29;6.03;;;5.47;;
9918;SDS011;4998;51.024;13.828;2023-08-20T06:31:56;6.20;;;5.60;;
9918;SDS011;4998;51.024;13.828;2023-08-20T06:34:23;5.97;;;5.50;;
9918;SDS011;4998;51.024;13.828;2023-08-20T06:36:50;8.00;;;5.50;;
9918;SDS011;4998;51.024;13.828;2023-08-20T06:39:18;6.17;;;5.57;;
9918;SDS011;4998;51.024;13.828;2023-08-20T06:41:45;7.03;;;6.20;;
9918;SDS011;4998;51.024;13.828;2023-08-20T06:44:12;6.27;;;5.40;;
9918;SDS011;4998;51.024;13.828;2023-08-20T06:46:39;6.77;;;6.10;;
9918;SDS011;4998;51.024;13.828;2023-08-20T06:49:06;6.50;;;5.90;;
9918;SDS011;4998;51.024;13.828;2023-08-20T06:51:33;6.87;;;6.20;;
9918;SDS011;4998;51.024;13.828;2023-08-20T06:54:01;5.80;;;5.20;;
9918;SDS011;4998;51.024;13.828;2023-08-20T06:56:32;5.60;;;4.97;;
9918;SDS011;4998;51.024;13.828;2023-08-20T06:58:59;6.17;;;5.67;;
9918;SDS011;4998;51.024;13.828;2023-08-20T07:01:26;6.67;;;5.90;;
9918;SDS011;4998;51.024;13.828;2023-08-20T07:03:53;7.40;;;6.33;;
9918;SDS011;4998;51.024;13.828;2023-08-20T07:06:20;6.63;;;6.00;;
9918;SDS011;4998;51.024;13.828;2023-08-20T07:08:47;5.87;;;5.37;;
9918;SDS011;4998;51.024;13.828;2023-08-20T07:11:15;6.60;;;5.70;;
9918;SDS011;4998;51.024;13.828;2023-08-20T07:13:43;8.70;;;5.83;;
9918;SDS011;4998;51.024;13.828;2023-08-20T07:16:11;5.93;;;5.43;;
9918;SDS011;4998;51.024;13.828;2023-08-20T07:18:37;6.67;;;5.30;;
9918;SDS011;4998;51.024;13.828;2023-08-20T07:21:04;6.30;;;5.70;;
9918;SDS011;4998;51.024;13.828;2023-08-20T07:23:32;6.37;;;5.80;;
9918;SDS011;4998;51.024;13.828;2023-08-20T07:26:06;6.53;;;5.80;;
9918;SDS011;4998;51.024;13.828;2023-08-20T07:28:34;6.33;;;5.73;;
9918;SDS011;4998;51.024;13.828;2023-08-20T07:31:20;11.87;;;9.57;;
9918;SDS011;4998;51.024;13.828;2023-08-20T07:33:47;7.73;;;6.97;;
9918;SDS011;4998;51.024;13.828;2023-08-20T07:36:15;7.30;;;6.60;;
9918;SDS011;4998;51.024;13.828;2023-08-20T07:38:43;6.80;;;6.10;;
9918;SDS011;4998;51.024;13.828;2023-08-20T07:41:10;6.40;;;5.80;;
9918;SDS011;4998;51.024;13.828;2023-08-20T07:43:37;6.10;;;5.60;;
9918;SDS011;4998;51.024;13.828;2023-08-20T07:46:05;8.50;;;5.60;;
9918;SDS011;4998;51.024;13.828;2023-08-20T07:48:34;6.37;;;5.60;;
9918;SDS011;4998;51.024;13.828;2023-08-20T07:51:01;6.40;;;5.77;;
9918;SDS011;4998;51.024;13.828;2023-08-20T07:53:29;6.50;;;5.90;;
9918;SDS011;4998;51.024;13.828;2023-08-20T07:55:56;5.90;;;5.30;;
9918;SDS011;4998;51.024;13.828;2023-08-20T07:58:23;6.37;;;5.80;;
9918;SDS011;4998;51.024;13.828;2023-08-20T08:00:50;5.33;;;4.93;;
9918;SDS011;4998;51.024;13.828;2023-08-20T08:03:17;6.03;;;5.53;;
9918;SDS011;4998;51.024;13.828;2023-08-20T08:05:47;6.70;;;6.13;;
9918;SDS011;4998;51.024;13.828;2023-08-20T08:08:14;7.83;;;6.17;;
9918;SDS011;4998;51.024;13.828;2023-08-20T08:10:41;6.53;;;5.90;;
9918;SDS011;4998;51.024;13.828;2023-08-20T08:13:10;6.27;;;5.70;;
9918;SDS011;4998;51.024;13.828;2023-08-20T08:15:37;6.67;;;6.10;;
9918;SDS011;4998;51.024;13.828;2023-08-20T08:18:04;6.00;;;5.50;;
9918;SDS011;4998;51.024;13.828;2023-08-20T08:20:31;6.23;;;5.70;;
9918;SDS011;4998;51.024;13.828;2023-08-20T08:23:00;6.37;;;5.50;;
9918;SDS011;4998;51.024;13.828;2023-08-20T08:25:28;7.30;;;6.00;;
9918;SDS011;4998;51.024;13.828;2023-08-20T08:27:55;5.80;;;5.30;;
9918;SDS011;4998;51.024;13.828;2023-08-20T08:30:22;6.33;;;5.73;;
9918;SDS011;4998;51.024;13.828;2023-08-20T08:32:49;7.33;;;6.30;;
9918;SDS011;4998;51.024;13.828;2023-08-20T08:35:16;7.30;;;5.73;;
9918;SDS011;4998;51.024;13.828;2023-08-20T08:37:43;6.53;;;5.93;;
9918;SDS011;4998;51.024;13.828;2023-08-20T08:40:12;6.23;;;5.63;;
9918;SDS011;4998;51.024;13.828;2023-08-20T08:42:40;6.90;;;5.93;;
9918;SDS011;4998;51.024;13.828;2023-08-20T08:45:08;6.10;;;5.60;;
9918;SDS011;4998;51.024;13.828;2023-08-20T08:47:36;6.27;;;5.67;;
9918;SDS011;4998;51.024;13.828;2023-08-20T08:50:04;8.47;;;5.97;;
9918;SDS011;4998;51.024;13.828;2023-08-20T08:52:32;6.47;;;5.87;;
9918;SDS011;4998;51.024;13.828;2023-08-20T08:55:01;6.43;;;5.83;;
9918;SDS011;4998;51.024;13.828;2023-08-20T08:57:34;7.13;;;5.90;;
9918;SDS011;4998;51.024;13.828;2023-08-20T09:00:01;6.20;;;5.70;;
9918;SDS011;4998;51.024;13.828;2023-08-20T09:02:28;5.37;;;4.90;;
9918;SDS011;4998;51.024;13.828;2023-08-20T09:04:55;5.90;;;5.30;;
9918;SDS011;4998;51.024;13.828;2023-08-20T09:07:23;6.60;;;6.03;;
9918;SDS011;4998;51.024;13.828;2023-08-20T09:09:50;6.50;;;5.70;;
9918;SDS011;4998;51.024;13.828;2023-08-20T09:12:17;5.50;;;5.10;;
9918;SDS011;4998;51.024;13.828;2023-08-20T09:14:48;10.70;;;6.10;;
9918;SDS011;4998;51.024;13.828;2023-08-20T09:17:16;8.40;;;6.20;;
9918;SDS011;4998;51.024;13.828;2023-08-20T09:19:44;7.03;;;5.77;;
9918;SDS011;4998;51.024;13.828;2023-08-20T09:22:12;5.90;;;5.40;;
9918;SDS011;4998;51.024;13.828;2023-08-20T09:24:40;5.40;;;5.00;;
9918;SDS011;4998;51.024;13.828;2023-08-20T09:27:08;5.60;;;5.20;;
9918;SDS011;4998;51.024;13.828;2023-08-20T09:29:43;5.90;;;5.40;;
9918;SDS011;4998;51.024;13.828;2023-08-20T09:32:14;6.67;;;5.90;;
9918;SDS011;4998;51.024;13.828;2023-08-20T09:34:42;7.23;;;6.27;;
9918;SDS011;4998;51.024;13.828;2023-08-20T09:37:09;8.70;;;6.60;;
9918;SDS011;4998;51.024;13.828;2023-08-20T09:39:37;7.97;;;7.10;;
9918;SDS011;4998;51.024;13.828;2023-08-20T09:42:04;7.40;;;6.70;;
9918;SDS011;4998;51.024;13.828;2023-08-20T09:44:32;7.63;;;6.30;;
9918;SDS011;4998;51.024;13.828;2023-08-20T09:47:02;7.30;;;6.70;;
9918;SDS011;4998;51.024;13.828;2023-08-20T09:49:32;6.93;;;6.33;;
9918;SDS011;4998;51.024;13.828;2023-08-20T09:52:03;7.03;;;6.33;;
9918;SDS011;4998;51.024;13.828;2023-08-20T09:54:37;7.17;;;6.50;;
9918;SDS011;4998;51.024;13.828;2023-08-20T09:57:20;18.10;;;16.13;;
9918;SDS011;4998;51.024;13.828;2023-08-20T09:59:54;12.53;;;11.23;;
9918;SDS011;4998;51.024;13.828;2023-08-20T10:02:21;9.90;;;9.00;;
9918;SDS011;4998;51.024;13.828;2023-08-20T10:04:50;8.17;;;7.47;;
9918;SDS011;4998;51.024;13.828;2023-08-20T10:07:18;7.80;;;7.17;;
9918;SDS011;4998;51.024;13.828;2023-08-20T10:09:47;7.40;;;6.80;;
9918;SDS011;4998;51.024;13.828;2023-08-20T10:12:16;8.50;;;7.70;;
9918;SDS011;4998;51.024;13.828;2023-08-20T10:14:43;8.67;;;7.87;;
9918;SDS011;4998;51.024;13.828;2023-08-20T10:21:10;7.90;;;7.10;;
9918;SDS011;4998;51.024;13.828;2023-08-20T10:23:39;7.03;;;6.43;;
9918;SDS011;4998;51.024;13.828;2023-08-20T10:29:36;6.97;;;6.33;;
9918;SDS011;4998;51.024;13.828;2023-08-20T10:32:05;34.10;;;29.57;;
9918;SDS011;4998;51.024;13.828;2023-08-20T10:34:35;14.80;;;13.37;;
9918;SDS011;4998;51.024;13.828;2023-08-20T10:37:09;11.20;;;10.10;;
9918;SDS011;4998;51.024;13.828;2023-08-20T10:39:38;8.50;;;7.60;;
9918;SDS011;4998;51.024;13.828;2023-08-20T10:44:59;7.60;;;6.97;;
9918;SDS011;4998;51.024;13.828;2023-08-20T10:47:35;8.93;;;6.30;;
9918;SDS011;4998;51.024;13.828;2023-08-20T10:50:02;7.40;;;6.70;;
9918;SDS011;4998;51.024;13.828;2023-08-20T10:52:31;6.50;;;6.00;;
9918;SDS011;4998;51.024;13.828;2023-08-20T10:54:58;6.70;;;6.10;;
9918;SDS011;4998;51.024;13.828;2023-08-20T10:57:32;7.10;;;6.40;;
9918;SDS011;4998;51.024;13.828;2023-08-20T11:00:01;31.70;;;28.23;;
9918;SDS011;4998;51.024;13.828;2023-08-20T11:02:36;13.10;;;11.73;;
9918;SDS011;4998;51.024;13.828;2023-08-20T11:05:07;12.63;;;10.50;;
9918;SDS011;4998;51.024;13.828;2023-08-20T11:07:45;7.70;;;7.00;;
9918;SDS011;4998;51.024;13.828;2023-08-20T11:10:13;5.80;;;5.30;;
9918;SDS011;4998;51.024;13.828;2023-08-20T11:12:40;5.93;;;5.33;;
9918;SDS011;4998;51.024;13.828;2023-08-20T11:15:08;6.43;;;5.83;;
9918;SDS011;4998;51.024;13.828;2023-08-20T11:17:40;33.67;;;30.00;;
9918;SDS011;4998;51.024;13.828;2023-08-20T11:20:08;46.37;;;41.33;;
9918;SDS011;4998;51.024;13.828;2023-08-20T11:22:38;44.40;;;39.60;;
9918;SDS011;4998;51.024;13.828;2023-08-20T11:25:09;18.20;;;16.30;;
9918;SDS011;4998;51.024;13.828;2023-08-20T11:27:40;10.70;;;9.70;;
9918;SDS011;4998;51.024;13.828;2023-08-20T11:30:08;8.07;;;7.30;;
9918;SDS011;4998;51.024;13.828;2023-08-20T11:32:37;6.77;;;6.10;;
9918;SDS011;4998;51.024;13.828;2023-08-20T11:35:04;6.50;;;5.90;;
9918;SDS011;4998;51.024;13.828;2023-08-20T11:37:32;7.43;;;5.83;;
9918;SDS011;4998;51.024;13.828;2023-08-20T11:40:00;6.60;;;6.10;;
9918;SDS011;4998;51.024;13.828;2023-08-20T11:42:28;5.90;;;5.40;;
9918;SDS011;4998;51.024;13.828;2023-08-20T11:44:55;5.50;;;5.10;;
9918;SDS011;4998;51.024;13.828;2023-08-20T11:47:23;6.97;;;5.30;;
9918;SDS011;4998;51.024;13.828;2023-08-20T11:50:01;4.70;;;4.40;;
9918;SDS011;4998;51.024;13.828;2023-08-20T11:52:30;5.53;;;4.87;;
9918;SDS011;4998;51.024;13.828;2023-08-20T11:54:58;5.53;;;5.13;;
9918;SDS011;4998;51.024;13.828;2023-08-20T11:57:25;5.57;;;5.10;;
9918;SDS011;4998;51.024;13.828;2023-08-20T11:59:54;5.97;;;5.40;;
9918;SDS011;4998;51.024;13.828;2023-08-20T12:02:24;5.40;;;4.87;;
9918;SDS011;4998;51.024;13.828;2023-08-20T12:04:51;6.33;;;5.83;;
9918;SDS011;4998;51.024;13.828;2023-08-20T12:07:18;6.70;;;6.00;;
9918;SDS011;4998;51.024;13.828;2023-08-20T12:09:45;5.70;;;5.20;;
9918;SDS011;4998;51.024;13.828;2023-08-20T12:12:13;5.77;;;5.17;;
9918;SDS011;4998;51.024;13.828;2023-08-20T12:14:41;5.53;;;5.03;;
9918;SDS011;4998;51.024;13.828;2023-08-20T12:17:10;7.13;;;5.60;;
9918;SDS011;4998;51.024;13.828;2023-08-20T12:19:37;5.87;;;5.30;;
9918;SDS011;4998;51.024;13.828;2023-08-20T12:22:04;4.93;;;4.53;;
9918;SDS011;4998;51.024;13.828;2023-08-20T12:24:31;5.70;;;5.20;;
9918;SDS011;4998;51.024;13.828;2023-08-20T12:26:58;5.43;;;4.93;;
9918;SDS011;4998;51.024;13.828;2023-08-20T12:29:25;5.50;;;5.10;;
9918;SDS011;4998;51.024;13.828;2023-08-20T12:31:52;5.70;;;4.80;;
9918;SDS011;4998;51.024;13.828;2023-08-20T12:34:20;4.80;;;4.40;;
9918;SDS011;4998;51.024;13.828;2023-08-20T12:36:49;4.80;;;4.40;;
9918;SDS011;4998;51.024;13.828;2023-08-20T12:39:16;5.73;;;4.60;;
9918;SDS011;4998;51.024;13.828;2023-08-20T12:41:43;5.17;;;4.67;;
9918;SDS011;4998;51.024;13.828;2023-08-20T12:44:10;5.10;;;4.60;;
9918;SDS011;4998;51.024;13.828;2023-08-20T12:46:37;5.50;;;5.10;;
9918;SDS011;4998;51.024;13.828;2023-08-20T12:49:04;5.43;;;5.00;;
9918;SDS011;4998;51.024;13.828;2023-08-20T12:51:32;5.20;;;4.47;;
9918;SDS011;4998;51.024;13.828;2023-08-20T12:53:59;5.10;;;4.70;;
9918;SDS011;4998;51.024;13.828;2023-08-20T12:56:26;5.30;;;4.90;;
9918;SDS011;4998;51.024;13.828;2023-08-20T12:58:53;6.47;;;4.40;;
9918;SDS011;4998;51.024;13.828;2023-08-20T13:01:20;5.40;;;4.87;;
9918;SDS011;4998;51.024;13.828;2023-08-20T13:03:47;5.63;;;4.73;;
9918;SDS011;4998;51.024;13.828;2023-08-20T13:06:15;4.80;;;4.40;;
9918;SDS011;4998;51.024;13.828;2023-08-20T13:08:44;4.80;;;4.40;;
9918;SDS011;4998;51.024;13.828;2023-08-20T13:11:11;5.27;;;4.87;;
9918;SDS011;4998;51.024;13.828;2023-08-20T13:13:43;4.60;;;4.20;;
9918;SDS011;4998;51.024;13.828;2023-08-20T13:16:10;4.70;;;4.33;;
9918;SDS011;4998;51.024;13.828;2023-08-20T13:18:37;5.20;;;4.57;;
9918;SDS011;4998;51.024;13.828;2023-08-20T13:21:05;4.83;;;4.43;;
9918;SDS011;4998;51.024;13.828;2023-08-20T13:23:32;5.00;;;4.60;;
9918;SDS011;4998;51.024;13.828;2023-08-20T13:26:00;4.30;;;3.97;;
9918;SDS011;4998;51.024;13.828;2023-08-20T13:28:27;5.40;;;4.90;;
9918;SDS011;4998;51.024;13.828;2023-08-20T13:30:54;5.00;;;4.60;;
9918;SDS011;4998;51.024;13.828;2023-08-20T13:33:21;4.80;;;4.40;;
9918;SDS011;4998;51.024;13.828;2023-08-20T13:35:48;4.73;;;4.37;;
9918;SDS011;4998;51.024;13.828;2023-08-20T13:38:17;4.93;;;4.50;;
9918;SDS011;4998;51.024;13.828;2023-08-20T13:40:45;5.53;;;4.77;;
9918;SDS011;4998;51.024;13.828;2023-08-20T13:43:13;4.20;;;3.80;;
9918;SDS011;4998;51.024;13.828;2023-08-20T13:45:40;4.77;;;4.37;;
9918;SDS011;4998;51.024;13.828;2023-08-20T13:48:07;4.37;;;4.07;;
9918;SDS011;4998;51.024;13.828;2023-08-20T13:50:34;12.00;;;4.90;;
9918;SDS011;4998;51.024;13.828;2023-08-20T13:53:01;4.87;;;4.47;;
9918;SDS011;4998;51.024;13.828;2023-08-20T13:55:28;4.73;;;4.23;;
9918;SDS011;4998;51.024;13.828;2023-08-20T13:57:56;4.43;;;4.13;;
9918;SDS011;4998;51.024;13.828;2023-08-20T14:00:24;4.73;;;4.17;;
9918;SDS011;4998;51.024;13.828;2023-08-20T14:02:51;5.20;;;4.23;;
9918;SDS011;4998;51.024;13.828;2023-08-20T14:05:18;4.27;;;3.97;;
9918;SDS011;4998;51.024;13.828;2023-08-20T14:07:45;4.10;;;3.80;;
9918;SDS011;4998;51.024;13.828;2023-08-20T14:10:12;4.90;;;4.50;;
9918;SDS011;4998;51.024;13.828;2023-08-20T14:12:39;4.80;;;4.40;;
9918;SDS011;4998;51.024;13.828;2023-08-20T14:15:06;4.10;;;3.80;;
9918;SDS011;4998;51.024;13.828;2023-08-20T14:17:35;5.20;;;4.30;;
9918;SDS011;4998;51.024;13.828;2023-08-20T14:20:03;4.47;;;4.07;;
9918;SDS011;4998;51.024;13.828;2023-08-20T14:22:32;4.33;;;3.93;;
9918;SDS011;4998;51.024;13.828;2023-08-20T14:24:58;4.77;;;3.90;;
9918;SDS011;4998;51.024;13.828;2023-08-20T14:27:25;4.03;;;3.77;;
9918;SDS011;4998;51.024;13.828;2023-08-20T14:29:52;4.17;;;3.87;;
9918;SDS011;4998;51.024;13.828;2023-08-20T14:32:19;4.50;;;4.10;;
9918;SDS011;4998;51.024;13.828;2023-08-20T14:34:47;5.20;;;4.80;;
9918;SDS011;4998;51.024;13.828;2023-08-20T14:37:14;5.43;;;4.20;;
9918;SDS011;4998;51.024;13.828;2023-08-20T14:39:41;4.00;;;3.70;;
9918;SDS011;4998;51.024;13.828;2023-08-20T14:42:08;4.90;;;4.00;;
9918;SDS011;4998;51.024;13.828;2023-08-20T14:44:35;4.50;;;4.10;;
9918;SDS011;4998;51.024;13.828;2023-08-20T14:47:02;4.17;;;3.87;;
9918;SDS011;4998;51.024;13.828;2023-08-20T14:49:29;4.17;;;3.87;;
9918;SDS011;4998;51.024;13.828;2023-08-20T14:51:58;4.60;;;4.20;;
9918;SDS011;4998;51.024;13.828;2023-08-20T14:54:25;6.40;;;4.23;;
9918;SDS011;4998;51.024;13.828;2023-08-20T14:56:53;6.87;;;4.43;;
9918;SDS011;4998;51.024;13.828;2023-08-20T14:59:19;4.37;;;4.07;;
9918;SDS011;4998;51.024;13.828;2023-08-20T15:01:47;4.30;;;3.90;;
9918;SDS011;4998;51.024;13.828;2023-08-20T15:04:13;4.27;;;3.87;;
9918;SDS011;4998;51.024;13.828;2023-08-20T15:06:40;4.50;;;4.10;;
9918;SDS011;4998;51.024;13.828;2023-08-20T15:09:08;4.90;;;4.40;;
9918;SDS011;4998;51.024;13.828;2023-08-20T15:11:40;5.07;;;4.60;;
9918;SDS011;4998;51.024;13.828;2023-08-20T15:14:07;4.70;;;4.30;;
9918;SDS011;4998;51.024;13.828;2023-08-20T15:16:34;3.93;;;3.73;;